Time;durP1;ratioP1;P1;durP2;ratioP2;P2;SDS_P1;SDS_P2;PMS_P1;PMS_P2;Temp;Humidity;BMP_temperature;BMP_pressure;BME280_temperature;BME280_humidity;BME280_pressure;Samples;Min_cycle;Max_cycle;Signal;HPM_P1;HPM_P2
2023/03/12 00:01:14;;;;;;;6.13;3.42;;;;;;;;;;4977793;28;20101;-77
2023/03/12 00:03:40;;;;;;;6.93;3.67;;;;;;;;;;4978371;28;20137;-78
2023/03/12 00:06:07;;;;;;;6.88;3.78;;;;;;;;;;4981034;28;20053;-79
2023/03/12 00:08:34;;;;;;;7.18;3.65;;;;;;;;;;4979829;28;20533;-79
2023/03/12 00:11:05;;;;;;;7.60;4.15;;;;;;;;;;4975722;28;20051;-78
2023/03/12 00:13:33;;;;;;;8.18;4.88;;;;;;;;;;4981634;28;20065;-77
2023/03/12 00:16:04;;;;;;;6.15;3.92;;;;;;;;;;4980421;28;20473;-82
2023/03/12 00:18:30;;;;;;;8.65;4.50;;;;;;;;;;4979988;28;20050;-79
2023/03/12 00:20:57;;;;;;;7.47;4.47;;;;;;;;;;4978355;28;20130;-80
2023/03/12 00:23:24;;;;;;;10.02;4.82;;;;;;;;;;4978705;28;20522;-79
2023/03/12 00:25:50;;;;;;;9.50;4.57;;;;;;;;;;4978655;28;20506;-78
2023/03/12 00:28:17;;;;;;;9.02;4.65;;;;;;;;;;4979222;28;20052;-78
2023/03/12 00:30:45;;;;;;;9.05;4.97;;;;;;;;;;4990671;28;20130;-77
2023/03/12 00:33:12;;;;;;;8.10;4.85;;;;;;;;;;4990746;28;20042;-77
2023/03/12 00:35:39;;;;;;;11.02;5.38;;;;;;;;;;4987946;28;20043;-84
2023/03/12 00:38:06;;;;;;;8.60;4.82;;;;;;;;;;4980661;28;20043;-80
2023/03/12 00:40:32;;;;;;;7.78;5.13;;;;;;;;;;4980001;28;20121;-79
2023/03/12 00:42:59;;;;;;;8.85;4.80;;;;;;;;;;4975701;28;20558;-81
2023/03/12 00:45:26;;;;;;;7.07;3.90;;;;;;;;;;4978955;28;20043;-80
2023/03/12 00:47:54;;;;;;;7.38;4.40;;;;;;;;;;4979574;28;20570;-78
2023/03/12 00:50:20;;;;;;;7.40;5.10;;;;;;;;;;4979192;28;20051;-79
2023/03/12 00:52:47;;;;;;;8.70;4.25;;;;;;;;;;4979249;28;20073;-81
2023/03/12 00:55:14;;;;;;;10.18;4.78;;;;;;;;;;4979455;28;20514;-79
2023/03/12 00:57:40;;;;;;;9.90;4.32;;;;;;;;;;4979332;28;20074;-81
2023/03/12 01:00:09;;;;;;;8.68;4.57;;;;;;;;;;4979640;28;20047;-79
2023/03/12 01:02:36;;;;;;;7.57;4.18;;;;;;;;;;4980877;28;20518;-79
2023/03/12 01:05:05;;;;;;;6.82;4.25;;;;;;;;;;4979887;28;20641;-79
2023/03/12 01:07:31;;;;;;;9.50;4.90;;;;;;;;;;4967000;28;20082;-79
2023/03/12 01:09:58;;;;;;;6.57;4.22;;;;;;;;;;4978483;28;20137;-81
2023/03/12 01:12:25;;;;;;;8.82;4.72;;;;;;;;;;4978618;28;20086;-80
2023/03/12 01:14:51;;;;;;;9.23;4.30;;;;;;;;;;4977616;28;20074;-79
2023/03/12 01:17:18;;;;;;;9.77;4.53;;;;;;;;;;4977519;28;20142;-78
2023/03/12 01:19:45;;;;;;;8.75;4.35;;;;;;;;;;4979747;28;20070;-79
2023/03/12 01:22:14;;;;;;;7.80;3.75;;;;;;;;;;4980010;28;20109;-79
2023/03/12 01:24:40;;;;;;;6.95;4.68;;;;;;;;;;4978251;28;20510;-79
2023/03/12 01:27:07;;;;;;;9.43;4.57;;;;;;;;;;4979598;28;20069;-81
2023/03/12 01:29:34;;;;;;;9.10;4.53;;;;;;;;;;4978034;28;20549;-79
2023/03/12 01:32:00;;;;;;;8.63;4.63;;;;;;;;;;4979582;28;20054;-81
2023/03/12 01:34:27;;;;;;;7.80;4.68;;;;;;;;;;4979363;28;20078;-80
2023/03/12 01:36:56;;;;;;;7.47;4.32;;;;;;;;;;4980295;28;20110;-80
2023/03/12 01:39:24;;;;;;;8.15;4.60;;;;;;;;;;4978161;28;20101;-79
2023/03/12 01:41:51;;;;;;;8.80;4.97;;;;;;;;;;4976790;28;20094;-80
2023/03/12 01:44:17;;;;;;;8.68;4.82;;;;;;;;;;4978919;28;20447;-80
2023/03/12 01:46:45;;;;;;;11.07;4.63;;;;;;;;;;4977763;28;20524;-79
2023/03/12 01:49:14;;;;;;;8.15;4.70;;;;;;;;;;4976538;28;20042;-81
2023/03/12 01:51:45;;;;;;;7.72;4.00;;;;;;;;;;4977824;28;20070;-78
2023/03/12 01:54:17;;;;;;;8.30;4.55;;;;;;;;;;4976590;28;20047;-80
2023/03/12 01:56:46;;;;;;;6.97;3.67;;;;;;;;;;4976069;28;20142;-78
2023/03/12 01:59:17;;;;;;;7.03;4.25;;;;;;;;;;4976703;28;20169;-79
2023/03/12 02:01:45;;;;;;;8.32;4.10;;;;;;;;;;4977448;28;20057;-78
2023/03/12 02:04:12;;;;;;;8.13;4.13;;;;;;;;;;4976995;28;20049;-77
2023/03/12 02:06:45;;;;;;;9.88;4.57;;;;;;;;;;4974275;28;20071;-79
2023/03/12 02:09:13;;;;;;;9.95;4.93;;;;;;;;;;4978493;28;20043;-78
2023/03/12 02:11:39;;;;;;;8.20;4.80;;;;;;;;;;4984387;28;20058;-78
2023/03/12 02:14:07;;;;;;;9.20;4.32;;;;;;;;;;4990752;28;20078;-77
2023/03/12 02:16:34;;;;;;;8.65;4.38;;;;;;;;;;4984002;28;20061;-79
2023/03/12 02:19:02;;;;;;;9.90;4.90;;;;;;;;;;4978796;28;20053;-79
2023/03/12 02:21:34;;;;;;;7.90;4.78;;;;;;;;;;4978700;28;20054;-79
2023/03/12 02:24:07;;;;;;;8.63;4.32;;;;;;;;;;4977959;28;20050;-79
2023/03/12 02:26:36;;;;;;;6.82;3.83;;;;;;;;;;4977957;28;20074;-79
2023/03/12 02:29:03;;;;;;;7.50;4.18;;;;;;;;;;4992449;22;20100;-76
2023/03/12 02:31:37;;;;;;;7.85;4.75;;;;;;;;;;5015587;28;20536;-75
2023/03/12 02:34:04;;;;;;;8.65;4.90;;;;;;;;;;5013095;28;20488;-76
2023/03/12 02:36:30;;;;;;;7.35;4.30;;;;;;;;;;5011974;28;20089;-75
2023/03/12 02:38:57;;;;;;;10.23;4.72;;;;;;;;;;5011818;28;20088;-75
2023/03/12 02:41:28;;;;;;;9.23;4.57;;;;;;;;;;5011242;28;20045;-75
2023/03/12 02:44:02;;;;;;;7.90;4.85;;;;;;;;;;5011453;28;20038;-76
2023/03/12 02:46:32;;;;;;;10.55;4.70;;;;;;;;;;5011890;28;20151;-76
2023/03/12 02:48:59;;;;;;;8.40;4.63;;;;;;;;;;5011960;28;20146;-76
2023/03/12 02:51:26;;;;;;;11.80;5.15;;;;;;;;;;5012187;28;20052;-76
2023/03/12 02:53:53;;;;;;;8.45;4.45;;;;;;;;;;5015574;28;20415;-76
2023/03/12 02:56:22;;;;;;;8.10;4.63;;;;;;;;;;5014877;28;20081;-76
2023/03/12 02:58:49;;;;;;;8.10;5.15;;;;;;;;;;5015052;28;20046;-76
2023/03/12 03:01:17;;;;;;;10.75;5.28;;;;;;;;;;5015366;28;20579;-75
2023/03/12 03:03:44;;;;;;;8.70;5.82;;;;;;;;;;5015273;28;20136;-76
2023/03/12 03:06:11;;;;;;;11.02;6.10;;;;;;;;;;5009158;28;20599;-75
2023/03/12 03:08:38;;;;;;;9.48;6.00;;;;;;;;;;4995497;28;20596;-76
2023/03/12 03:11:05;;;;;;;11.70;6.40;;;;;;;;;;4995913;28;20042;-75
2023/03/12 03:13:32;;;;;;;10.57;5.82;;;;;;;;;;4995752;28;20042;-75
2023/03/12 03:16:00;;;;;;;9.90;5.90;;;;;;;;;;5005997;28;20080;-74
2023/03/12 03:18:30;;;;;;;10.23;6.43;;;;;;;;;;5028961;28;20050;-74
2023/03/12 03:20:57;;;;;;;12.38;6.95;;;;;;;;;;5026698;28;20113;-75
2023/03/12 03:23:23;;;;;;;13.45;7.18;;;;;;;;;;5019184;28;20056;-75
2023/03/12 03:25:51;;;;;;;11.23;6.47;;;;;;;;;;5014468;28;20077;-75
2023/03/12 03:28:18;;;;;;;11.82;7.07;;;;;;;;;;5014714;28;20049;-75
2023/03/12 03:30:45;;;;;;;10.35;6.57;;;;;;;;;;5014659;28;20081;-75
2023/03/12 03:33:11;;;;;;;11.30;6.03;;;;;;;;;;5014449;28;20050;-75
2023/03/12 03:35:39;;;;;;;14.20;6.53;;;;;;;;;;5014457;28;20155;-75
2023/03/12 03:38:07;;;;;;;12.40;7.20;;;;;;;;;;5014301;28;20121;-75
2023/03/12 03:40:34;;;;;;;14.23;7.60;;;;;;;;;;5014305;28;20104;-75
2023/03/12 03:43:00;;;;;;;11.35;6.22;;;;;;;;;;5014321;28;20544;-75
2023/03/12 03:45:27;;;;;;;11.27;7.00;;;;;;;;;;5014152;28;20060;-75
2023/03/12 03:47:54;;;;;;;13.70;7.18;;;;;;;;;;5015129;28;20109;-75
2023/03/12 03:50:20;;;;;;;12.48;7.05;;;;;;;;;;5015354;28;20050;-75
2023/03/12 03:52:48;;;;;;;11.38;6.65;;;;;;;;;;5016595;28;20544;-75
2023/03/12 03:55:15;;;;;;;13.80;6.47;;;;;;;;;;5016190;28;20619;-75
2023/03/12 03:57:42;;;;;;;10.57;6.20;;;;;;;;;;5014880;28;20127;-76
2023/03/12 04:00:11;;;;;;;13.13;7.00;;;;;;;;;;5014433;28;20133;-75
2023/03/12 04:02:39;;;;;;;13.05;6.57;;;;;;;;;;5014662;28;20112;-75
2023/03/12 04:05:06;;;;;;;13.35;7.07;;;;;;;;;;5014315;28;20567;-75
2023/03/12 04:07:33;;;;;;;14.07;7.13;;;;;;;;;;4998433;28;20070;-75
2023/03/12 04:10:01;;;;;;;14.88;7.15;;;;;;;;;;4994732;28;20499;-75
2023/03/12 04:12:28;;;;;;;12.57;7.35;;;;;;;;;;5001316;28;20104;-75
2023/03/12 04:14:55;;;;;;;14.48;8.57;;;;;;;;;;5014025;28;20057;-75
2023/03/12 04:17:22;;;;;;;13.95;8.38;;;;;;;;;;5013421;28;20511;-75
2023/03/12 04:19:48;;;;;;;14.80;7.55;;;;;;;;;;5013675;28;20049;-75
2023/03/12 04:22:15;;;;;;;14.68;7.70;;;;;;;;;;5012533;28;20484;-76
2023/03/12 04:24:42;;;;;;;16.58;8.13;;;;;;;;;;5013406;28;20060;-76
2023/03/12 04:27:10;;;;;;;17.77;9.18;;;;;;;;;;5013181;28;20042;-76
2023/03/12 04:29:38;;;;;;;18.52;10.30;;;;;;;;;;5013406;28;20136;-76
2023/03/12 04:32:05;;;;;;;16.83;9.10;;;;;;;;;;5013568;28;20046;-75
2023/03/12 04:34:32;;;;;;;18.23;9.40;;;;;;;;;;5013167;28;20064;-76
2023/03/12 04:37:00;;;;;;;17.30;9.13;;;;;;;;;;5012992;28;20132;-75
2023/03/12 04:39:27;;;;;;;17.80;9.48;;;;;;;;;;5013371;28;20129;-75
2023/03/12 04:41:54;;;;;;;16.30;9.50;;;;;;;;;;5013318;28;20046;-75
2023/03/12 04:44:22;;;;;;;16.63;9.02;;;;;;;;;;5013110;28;20053;-75
2023/03/12 04:46:48;;;;;;;15.27;8.25;;;;;;;;;;5013000;28;20125;-75
2023/03/12 04:49:15;;;;;;;13.52;8.13;;;;;;;;;;5012946;28;20081;-75
2023/03/12 04:51:42;;;;;;;12.93;7.43;;;;;;;;;;5013443;28;20432;-75
2023/03/12 04:54:09;;;;;;;16.30;8.43;;;;;;;;;;5013196;28;20046;-76
2023/03/12 04:56:35;;;;;;;15.93;8.38;;;;;;;;;;5012856;28;20585;-75
2023/03/12 04:59:02;;;;;;;18.65;9.18;;;;;;;;;;5012586;28;20049;-76
2023/03/12 05:01:32;;;;;;;18.90;9.55;;;;;;;;;;5013023;28;20482;-75
2023/03/12 05:03:59;;;;;;;20.95;10.02;;;;;;;;;;5012316;28;20463;-75
2023/03/12 05:06:26;;;;;;;17.02;9.32;;;;;;;;;;5004728;28;20457;-75
2023/03/12 05:08:53;;;;;;;16.92;8.82;;;;;;;;;;4993095;28;20046;-76
2023/03/12 05:11:20;;;;;;;16.95;9.43;;;;;;;;;;5008227;28;20133;-75
2023/03/12 05:13:47;;;;;;;19.45;9.90;;;;;;;;;;5012612;28;20085;-75
2023/03/12 05:16:15;;;;;;;18.73;9.65;;;;;;;;;;5011559;28;20497;-76
2023/03/12 05:18:44;;;;;;;19.33;10.25;;;;;;;;;;5011672;28;20060;-75
2023/03/12 05:21:13;;;;;;;19.90;10.85;;;;;;;;;;5012259;28;20042;-75
2023/03/12 05:23:41;;;;;;;20.10;11.20;;;;;;;;;;5012761;28;20125;-75
2023/03/12 05:26:15;;;;;;;17.65;9.02;;;;;;;;;;5012437;28;20129;-75
2023/03/12 05:28:42;;;;;;;17.60;8.88;;;;;;;;;;5019858;28;20057;-74
2023/03/12 05:31:09;;;;;;;17.65;9.60;;;;;;;;;;5028094;28;20125;-74
2023/03/12 05:33:36;;;;;;;19.10;9.55;;;;;;;;;;5027090;28;20077;-75
2023/03/12 05:36:04;;;;;;;18.33;10.68;;;;;;;;;;5017686;28;20136;-75
2023/03/12 05:38:31;;;;;;;18.60;9.93;;;;;;;;;;5012205;28;20088;-75
2023/03/12 05:40:59;;;;;;;15.70;8.50;;;;;;;;;;5012118;28;20515;-76
2023/03/12 05:43:26;;;;;;;16.80;8.75;;;;;;;;;;5012319;28;20050;-74
2023/03/12 05:45:53;;;;;;;17.58;9.50;;;;;;;;;;5011752;28;20041;-75
2023/03/12 05:48:20;;;;;;;19.33;9.77;;;;;;;;;;5012458;28;20108;-75
2023/03/12 05:50:47;;;;;;;16.38;8.90;;;;;;;;;;5012459;28;20129;-74
2023/03/12 05:53:15;;;;;;;19.25;9.95;;;;;;;;;;5012031;28;20049;-74
2023/03/12 05:55:42;;;;;;;16.92;8.52;;;;;;;;;;5012017;28;20539;-75
2023/03/12 05:58:09;;;;;;;15.35;8.43;;;;;;;;;;5012160;28;20052;-76
2023/03/12 06:00:37;;;;;;;17.33;9.65;;;;;;;;;;5011992;28;20053;-76
2023/03/12 06:03:04;;;;;;;19.33;10.10;;;;;;;;;;5012398;28;20473;-75
2023/03/12 06:05:31;;;;;;;17.85;9.10;;;;;;;;;;5012041;28;20046;-75
2023/03/12 06:07:57;;;;;;;16.05;8.15;;;;;;;;;;4997264;28;20512;-77
2023/03/12 06:10:27;;;;;;;15.13;8.35;;;;;;;;;;5011652;28;20078;-74
2023/03/12 06:12:54;;;;;;;13.73;7.83;;;;;;;;;;5011838;28;20665;-75
2023/03/12 06:15:21;;;;;;;15.15;7.95;;;;;;;;;;5011706;28;20050;-75
2023/03/12 06:17:48;;;;;;;15.27;7.90;;;;;;;;;;5012155;28;20069;-75
2023/03/12 06:20:15;;;;;;;14.57;7.85;;;;;;;;;;5011265;28;20142;-76
2023/03/12 06:22:42;;;;;;;15.50;8.15;;;;;;;;;;5012093;28;20056;-75
2023/03/12 06:25:10;;;;;;;13.32;6.85;;;;;;;;;;5011426;28;20046;-76
2023/03/12 06:27:38;;;;;;;13.65;7.82;;;;;;;;;;5013375;28;20137;-75
2023/03/12 06:30:05;;;;;;;13.05;6.40;;;;;;;;;;5012851;28;20203;-75
2023/03/12 06:32:32;;;;;;;14.90;7.25;;;;;;;;;;5015563;28;20444;-75
2023/03/12 06:35:00;;;;;;;12.32;7.63;;;;;;;;;;5015204;28;20050;-75
2023/03/12 06:37:27;;;;;;;12.93;7.15;;;;;;;;;;5017590;28;20049;-75
2023/03/12 06:39:53;;;;;;;13.73;7.78;;;;;;;;;;5015519;28;20077;-75
2023/03/12 06:42:21;;;;;;;12.65;7.40;;;;;;;;;;5015731;28;20081;-75
2023/03/12 06:44:49;;;;;;;10.25;5.47;;;;;;;;;;5016305;28;20527;-76
2023/03/12 06:47:16;;;;;;;11.77;5.60;;;;;;;;;;5015136;28;20092;-76
2023/03/12 06:49:42;;;;;;;9.52;5.95;;;;;;;;;;5015162;28;20050;-76
2023/03/12 06:52:09;;;;;;;10.70;5.55;;;;;;;;;;5014729;28;20376;-76
2023/03/12 06:54:36;;;;;;;10.60;5.72;;;;;;;;;;5015635;28;20073;-76
2023/03/12 06:57:02;;;;;;;11.57;5.30;;;;;;;;;;5015966;28;20130;-76
2023/03/12 06:59:29;;;;;;;10.70;5.43;;;;;;;;;;5015457;28;20077;-76
2023/03/12 07:01:57;;;;;;;8.32;5.40;;;;;;;;;;5015162;28;20140;-75
2023/03/12 07:04:24;;;;;;;10.63;5.43;;;;;;;;;;5014967;28;20411;-75
2023/03/12 07:06:50;;;;;;;9.68;4.40;;;;;;;;;;5003568;28;20149;-75
2023/03/12 07:09:17;;;;;;;9.88;4.43;;;;;;;;;;4995690;28;20053;-76
2023/03/12 07:11:44;;;;;;;9.25;4.90;;;;;;;;;;4995499;28;20141;-76
2023/03/12 07:14:11;;;;;;;8.52;4.13;;;;;;;;;;5005655;28;20531;-76
2023/03/12 07:16:38;;;;;;;7.80;4.28;;;;;;;;;;5014818;28;20050;-76
2023/03/12 07:19:06;;;;;;;9.25;4.60;;;;;;;;;;5015124;28;20045;-76
2023/03/12 07:21:36;;;;;;;7.72;4.20;;;;;;;;;;5015098;28;20085;-76
2023/03/12 07:24:05;;;;;;;8.55;4.00;;;;;;;;;;5015057;28;20088;-76
2023/03/12 07:26:33;;;;;;;9.07;4.15;;;;;;;;;;5014404;28;20042;-75
2023/03/12 07:29:00;;;;;;;6.93;3.50;;;;;;;;;;5014638;28;20072;-75
2023/03/12 07:31:27;;;;;;;6.57;3.40;;;;;;;;;;5014819;28;20083;-75
2023/03/12 07:33:54;;;;;;;7.03;3.70;;;;;;;;;;5014642;28;20050;-76
2023/03/12 07:36:22;;;;;;;7.88;3.67;;;;;;;;;;5014572;28;20085;-75
2023/03/12 07:38:49;;;;;;;7.43;4.05;;;;;;;;;;5013982;28;20496;-76
2023/03/12 07:41:15;;;;;;;8.55;4.05;;;;;;;;;;5014735;28;20049;-75
2023/03/12 07:43:42;;;;;;;8.48;3.75;;;;;;;;;;5014434;28;20561;-75
2023/03/12 07:46:09;;;;;;;6.40;3.42;;;;;;;;;;5014187;28;20088;-75
2023/03/12 07:48:35;;;;;;;6.78;3.50;;;;;;;;;;5014147;28;20050;-75
2023/03/12 07:51:02;;;;;;;6.88;3.50;;;;;;;;;;5014479;28;20074;-75
2023/03/12 07:53:30;;;;;;;7.18;3.53;;;;;;;;;;5014576;28;20081;-76
2023/03/12 07:55:57;;;;;;;6.78;3.78;;;;;;;;;;5013966;28;20096;-75
2023/03/12 07:58:24;;;;;;;6.70;3.50;;;;;;;;;;5015361;28;20488;-74
2023/03/12 08:00:52;;;;;;;6.85;3.42;;;;;;;;;;5014506;28;20045;-75
2023/03/12 08:03:19;;;;;;;6.10;3.33;;;;;;;;;;5014777;28;20088;-75
2023/03/12 08:05:45;;;;;;;6.13;3.20;;;;;;;;;;5012119;28;20077;-75
2023/03/12 08:08:12;;;;;;;6.75;3.50;;;;;;;;;;5013893;28;20045;-76
2023/03/12 08:10:41;;;;;;;7.63;3.63;;;;;;;;;;5013937;28;20081;-76
2023/03/12 08:13:10;;;;;;;8.40;4.38;;;;;;;;;;5014146;28;20473;-75
2023/03/12 08:15:37;;;;;;;7.97;3.60;;;;;;;;;;5013593;28;20386;-76
2023/03/12 08:18:04;;;;;;;7.40;3.97;;;;;;;;;;5014258;28;20431;-77
2023/03/12 08:20:30;;;;;;;7.60;3.50;;;;;;;;;;5014011;28;20042;-75
2023/03/12 08:22:57;;;;;;;6.88;3.50;;;;;;;;;;5013645;28;20408;-76
2023/03/12 08:25:24;;;;;;;7.80;3.63;;;;;;;;;;5012564;28;20050;-75
2023/03/12 08:27:52;;;;;;;7.30;3.67;;;;;;;;;;5013635;28;20065;-75
2023/03/12 08:30:19;;;;;;;8.02;3.05;;;;;;;;;;5019620;22;20050;-78
2023/03/12 08:32:46;;;;;;;5.32;3.10;;;;;;;;;;4980104;28;20590;-79
2023/03/12 08:35:13;;;;;;;6.00;2.80;;;;;;;;;;4993482;28;20141;-79
2023/03/12 08:37:40;;;;;;;6.57;3.30;;;;;;;;;;4999931;28;20054;-79
2023/03/12 08:40:11;;;;;;;5.03;2.75;;;;;;;;;;4985916;28;20166;-78
2023/03/12 08:42:38;;;;;;;7.55;3.25;;;;;;;;;;4981463;28;20051;-79
2023/03/12 08:45:08;;;;;;;7.22;3.63;;;;;;;;;;4980147;28;20085;-79
2023/03/12 08:47:35;;;;;;;6.30;3.53;;;;;;;;;;4979478;28;20047;-79
2023/03/12 08:50:02;;;;;;;6.95;3.13;;;;;;;;;;4979322;28;20050;-80
2023/03/12 08:52:28;;;;;;;7.38;3.15;;;;;;;;;;4979656;28;20050;-80
2023/03/12 08:54:55;;;;;;;7.25;3.25;;;;;;;;;;4978792;28;20129;-80
2023/03/12 08:57:22;;;;;;;6.95;2.85;;;;;;;;;;4978509;28;20086;-80
2023/03/12 08:59:48;;;;;;;5.50;2.60;;;;;;;;;;4979329;28;20053;-80
2023/03/12 09:02:16;;;;;;;11.93;3.33;;;;;;;;;;4969510;28;20153;-80
2023/03/12 09:04:47;;;;;;;21.85;3.90;;;;;;;;;;4976589;28;20047;-80
2023/03/12 09:07:14;;;;;;;6.47;3.03;;;;;;;;;;4973687;28;20126;-79
2023/03/12 09:09:40;;;;;;;8.43;3.20;;;;;;;;;;4959327;28;20051;-80
2023/03/12 09:12:07;;;;;;;5.90;2.92;;;;;;;;;;4959888;28;20117;-81
2023/03/12 09:14:34;;;;;;;7.70;3.13;;;;;;;;;;4959239;28;20051;-79
2023/03/12 09:17:01;;;;;;;6.97;3.22;;;;;;;;;;4959143;28;20061;-82
2023/03/12 09:19:29;;;;;;;5.57;3.28;;;;;;;;;;4964837;28;20040;-79
2023/03/12 09:21:56;;;;;;;5.50;2.90;;;;;;;;;;4977847;28;20548;-79
2023/03/12 09:24:23;;;;;;;8.85;4.32;;;;;;;;;;4979143;28;20046;-80
2023/03/12 09:26:50;;;;;;;7.05;3.30;;;;;;;;;;4977937;28;20162;-82
2023/03/12 09:29:16;;;;;;;8.30;4.00;;;;;;;;;;4980613;28;20107;-79
2023/03/12 09:31:43;;;;;;;8.43;3.83;;;;;;;;;;4978627;28;20133;-79
2023/03/12 09:34:10;;;;;;;6.95;3.95;;;;;;;;;;4978148;28;20477;-81
2023/03/12 09:36:38;;;;;;;6.95;3.70;;;;;;;;;;4979146;28;20038;-79
2023/03/12 09:39:04;;;;;;;6.22;3.80;;;;;;;;;;4988632;28;20074;-78
2023/03/12 09:41:35;;;;;;;9.80;3.63;;;;;;;;;;4986314;28;20066;-79
2023/03/12 09:44:04;;;;;;;6.57;3.78;;;;;;;;;;4984861;28;20085;-78
2023/03/12 09:46:37;;;;;;;7.75;3.85;;;;;;;;;;4975045;28;20047;-80
2023/03/12 09:49:11;;;;;;;7.03;3.72;;;;;;;;;;4978935;28;20106;-80
2023/03/12 09:51:43;;;;;;;6.97;3.30;;;;;;;;;;4978366;28;20043;-76
2023/03/12 09:54:23;;;;;;;6.75;3.58;;;;;;;;;;4977283;28;20410;-78
2023/03/12 09:56:52;;;;;;;7.38;3.80;;;;;;;;;;4973729;28;20577;-78
2023/03/12 09:59:19;;;;;;;7.72;4.03;;;;;;;;;;4976195;28;20046;-78
2023/03/12 10:01:52;;;;;;;5.55;3.30;;;;;;;;;;4975988;28;20046;-78
2023/03/12 10:04:26;;;;;;;5.95;3.10;;;;;;;;;;4976833;28;20078;-78
2023/03/12 10:06:59;;;;;;;6.30;3.58;;;;;;;;;;4966636;28;20062;-75
2023/03/12 10:09:52;;;;;;;6.65;3.30;;;;;;;;;;4970313;28;20133;-79
2023/03/12 10:12:29;;;;;;;6.18;3.35;;;;;;;;;;4959930;28;20051;-80
2023/03/12 10:15:12;;;;;;;7.85;3.58;;;;;;;;;;4960238;28;20058;-83
2023/03/12 10:17:50;;;;;;;6.65;3.60;;;;;;;;;;4962418;28;20079;-84
2023/03/12 10:20:41;;;;;;;7.32;3.50;;;;;;;;;;4980176;28;20121;-80
2023/03/12 10:23:13;;;;;;;6.05;3.15;;;;;;;;;;4980918;28;20106;-83
2023/03/12 10:25:44;;;;;;;7.47;3.40;;;;;;;;;;4979704;28;20133;-81
2023/03/12 10:28:16;;;;;;;20.00;12.25;;;;;;;;;;4984838;28;20051;-79
2023/03/12 10:30:54;;;;;;;11.70;6.00;;;;;;;;;;4982453;28;20554;-82
2023/03/12 10:33:22;;;;;;;11.25;6.72;;;;;;;;;;4986655;28;20093;-81
2023/03/12 10:35:51;;;;;;;28.58;12.25;;;;;;;;;;4982741;28;20075;-81
2023/03/12 10:38:25;;;;;;;15.70;8.18;;;;;;;;;;4982942;28;20046;-85
2023/03/12 10:40:51;;;;;;;5.90;3.63;;;;;;;;;;4985259;28;20101;-80
2023/03/12 10:43:18;;;;;;;9.85;5.57;;;;;;;;;;4981179;28;20055;-82
2023/03/12 10:45:52;;;;;;;10.55;5.03;;;;;;;;;;4996991;28;20042;-83
2023/03/12 10:48:21;;;;;;;7.32;4.57;;;;;;;;;;4994286;28;20042;-82
2023/03/12 10:51:02;;;;;;;6.88;3.75;;;;;;;;;;4981056;28;20530;-83
2023/03/12 10:53:33;;;;;;;7.80;4.05;;;;;;;;;;4967174;28;20483;-85
2023/03/12 10:56:03;;;;;;;8.18;5.20;;;;;;;;;;4958976;28;20047;-80
2023/03/12 10:58:37;;;;;;;5.03;2.17;;;;;;;;;;4958662;28;20451;-80
2023/03/12 11:01:07;;;;;;;4.18;2.05;;;;;;;;;;4969580;28;20053;-79
2023/03/12 11:03:34;;;;;;;4.72;2.17;;;;;;;;;;4977163;28;20051;-80
2023/03/12 11:06:02;;;;;;;4.30;2.28;;;;;;;;;;4983244;28;20114;-78
2023/03/12 11:08:32;;;;;;;4.32;2.35;;;;;;;;;;4985226;28;20051;-79
2023/03/12 11:11:00;;;;;;;5.30;2.30;;;;;;;;;;4980112;28;20041;-81
2023/03/12 11:13:29;;;;;;;4.65;2.55;;;;;;;;;;4975486;28;20129;-80
2023/03/12 11:15:57;;;;;;;4.70;2.63;;;;;;;;;;4981550;28;20050;-79
2023/03/12 11:18:28;;;;;;;4.25;2.40;;;;;;;;;;4982169;28;20133;-80
2023/03/12 11:20:56;;;;;;;4.25;2.05;;;;;;;;;;4981452;28;20082;-77
2023/03/12 11:23:28;;;;;;;4.78;2.40;;;;;;;;;;4981133;28;20038;-80
2023/03/12 11:25:59;;;;;;;6.43;2.42;;;;;;;;;;4981444;28;20077;-81
2023/03/12 11:28:35;;;;;;;5.57;2.90;;;;;;;;;;4982574;28;20504;-81
2023/03/12 11:31:02;;;;;;;4.57;2.55;;;;;;;;;;4965527;28;20082;-80
2023/03/12 11:33:29;;;;;;;6.50;3.00;;;;;;;;;;4976626;28;20051;-81
2023/03/12 11:36:14;;;;;;;6.35;3.00;;;;;;;;;;4980061;28;20406;-81
2023/03/12 11:38:47;;;;;;;5.15;2.58;;;;;;;;;;4980097;28;20066;-81
2023/03/12 11:41:43;;;;;;;4.47;2.13;;;;;;;;;;4980278;28;20498;-80
2023/03/12 11:44:22;;;;;;;8.80;3.15;;;;;;;;;;4960863;29;20047;-80
2023/03/12 11:47:00;;;;;;;6.18;3.53;;;;;;;;;;4974548;28;20061;-82
2023/03/12 11:49:40;;;;;;;6.57;2.38;;;;;;;;;;4981204;28;20051;-83
2023/03/12 11:52:15;;;;;;;5.15;2.80;;;;;;;;;;4981011;28;20050;-83
2023/03/12 11:55:15;;;;;;;4.90;2.55;;;;;;;;;;4981058;28;20090;-83
2023/03/12 11:57:56;;;;;;;4.28;2.60;;;;;;;;;;4965266;28;20086;-83
2023/03/12 12:00:33;;;;;;;4.93;3.00;;;;;;;;;;4962377;28;20134;-84
2023/03/12 12:03:22;;;;;;;6.00;3.13;;;;;;;;;;4980292;28;20070;-83
2023/03/12 12:05:59;;;;;;;5.88;3.10;;;;;;;;;;4981193;28;20043;-83
2023/03/12 12:08:43;;;;;;;4.88;2.88;;;;;;;;;;4978893;28;20074;-83
2023/03/12 12:11:17;;;;;;;6.88;3.13;;;;;;;;;;4979520;28;20495;-81
2023/03/12 12:13:56;;;;;;;8.63;3.80;;;;;;;;;;4981365;28;20066;-82
2023/03/12 12:16:37;;;;;;;6.68;3.97;;;;;;;;;;4970150;28;20061;-80
2023/03/12 12:19:18;;;;;;;8.10;4.18;;;;;;;;;;4975466;28;20138;-80
2023/03/12 12:21:52;;;;;;;;;;;;;;;;;;4977637;28;20054;-80
2023/03/12 12:24:30;;;;;;;5.78;3.10;;;;;;;;;;4975785;28;20009;-80
2023/03/12 12:27:08;;;;;;;5.20;3.08;;;;;;;;;;4977731;28;20053;-80
2023/03/12 12:29:50;;;;;;;9.13;3.33;;;;;;;;;;4981674;28;20046;-81
2023/03/12 12:32:23;;;;;;;6.45;3.30;;;;;;;;;;4980524;28;20054;-81
2023/03/12 12:35:05;;;;;;;5.60;3.33;;;;;;;;;;4961128;28;20047;-81
2023/03/12 12:37:43;;;;;;;7.93;3.95;;;;;;;;;;4962201;28;20090;-80
2023/03/12 12:40:19;;;;;;;7.80;3.80;;;;;;;;;;4962122;28;20047;-81
2023/03/12 12:42:55;;;;;;;7.95;4.65;;;;;;;;;;4985295;28;20110;-81
2023/03/12 12:45:24;;;;;;;7.40;4.43;;;;;;;;;;4979031;28;20118;-80
2023/03/12 12:47:57;;;;;;;7.78;4.35;;;;;;;;;;4976886;28;20134;-79
2023/03/12 12:50:29;;;;;;;9.23;4.80;;;;;;;;;;4977393;28;20043;-80
2023/03/12 12:53:01;;;;;;;11.30;6.75;;;;;;;;;;4978549;28;20074;-80
2023/03/12 12:55:34;;;;;;;8.40;5.20;;;;;;;;;;4979645;28;20078;-80
2023/03/12 12:58:04;;;;;;;8.18;4.63;;;;;;;;;;4987522;28;20053;-78
2023/03/12 13:00:39;;;;;;;6.70;4.35;;;;;;;;;;4975504;28;20405;-79
2023/03/12 13:03:14;;;;;;;7.53;4.75;;;;;;;;;;4976523;28;20047;-80
2023/03/12 13:05:45;;;;;;;8.13;4.38;;;;;;;;;;4975098;28;20110;-79
2023/03/12 13:08:35;;;;;;;8.40;4.75;;;;;;;;;;4974808;28;20626;-78
2023/03/12 13:11:05;;;;;;;7.30;4.82;;;;;;;;;;4974265;28;20549;-80
2023/03/12 13:13:32;;;;;;;8.00;4.03;;;;;;;;;;4974672;28;20047;-78
2023/03/12 13:16:19;;;;;;;7.15;4.18;;;;;;;;;;4973886;28;20050;-79
2023/03/12 13:18:58;;;;;;;6.85;4.47;;;;;;;;;;4974254;28;20057;-79
2023/03/12 13:21:30;;;;;;;8.38;4.72;;;;;;;;;;4974412;28;20690;-78
2023/03/12 13:24:11;;;;;;;7.00;4.30;;;;;;;;;;4973817;28;20082;-80
2023/03/12 13:26:51;;;;;;;8.77;4.18;;;;;;;;;;4974119;28;20050;-78
2023/03/12 13:29:35;;;;;;;7.05;4.18;;;;;;;;;;4972874;28;20043;-81
2023/03/12 13:32:03;;;;;;;7.03;4.20;;;;;;;;;;4972224;28;20051;-79
2023/03/12 13:34:44;;;;;;;8.07;4.45;;;;;;;;;;4972917;28;20418;-80
2023/03/12 13:37:29;;;;;;;6.88;4.30;;;;;;;;;;4971564;28;20486;-78
2023/03/12 13:40:00;;;;;;;7.38;4.47;;;;;;;;;;4972528;28;20421;-78
2023/03/12 13:42:39;;;;;;;6.63;4.40;;;;;;;;;;4972413;28;20081;-78
2023/03/12 13:45:24;;;;;;;7.22;4.68;;;;;;;;;;4983671;28;20102;-78
2023/03/12 13:47:57;;;;;;;8.55;5.03;;;;;;;;;;4991845;28;20485;-79
2023/03/12 13:50:25;;;;;;;8.82;5.10;;;;;;;;;;4992717;28;20085;-78
2023/03/12 13:53:03;;;;;;;11.25;4.50;;;;;;;;;;4992018;28;20061;-78
2023/03/12 13:55:31;;;;;;;8.65;4.90;;;;;;;;;;4975580;28;20053;-79
2023/03/12 13:58:04;;;;;;;9.38;4.93;;;;;;;;;;4977395;28;20137;-79
2023/03/12 14:00:36;;;;;;;9.77;4.82;;;;;;;;;;4974014;28;20451;-79
2023/03/12 14:03:09;;;;;;;9.00;4.72;;;;;;;;;;4973608;28;20643;-77
2023/03/12 14:05:48;;;;;;;7.20;4.22;;;;;;;;;;4972564;28;20134;-77
2023/03/12 14:08:27;;;;;;;7.63;4.57;;;;;;;;;;4956408;28;20137;-78
2023/03/12 14:11:07;;;;;;;7.68;4.03;;;;;;;;;;4972948;28;20082;-78
2023/03/12 14:13:44;;;;;;;7.78;4.40;;;;;;;;;;4974504;28;20137;-79
2023/03/12 14:16:19;;;;;;;8.18;4.90;;;;;;;;;;4988126;28;20132;-81
2023/03/12 14:18:47;;;;;;;9.65;4.72;;;;;;;;;;4978649;28;20137;-80
2023/03/12 14:21:17;;;;;;;9.10;4.00;;;;;;;;;;4983010;28;20122;-79
2023/03/12 14:23:49;;;;;;;8.97;4.17;;;;;;;;;;4981932;28;20103;-79
2023/03/12 14:26:20;;;;;;;7.05;4.38;;;;;;;;;;4980585;28;20130;-80
2023/03/12 14:28:50;;;;;;;8.15;4.60;;;;;;;;;;4982466;28;20047;-78
2023/03/12 14:31:23;;;;;;;9.93;4.68;;;;;;;;;;4982452;28;20083;-81
2023/03/12 14:33:55;;;;;;;8.32;3.95;;;;;;;;;;4982538;28;20110;-81
2023/03/12 14:36:27;;;;;;;8.32;3.90;;;;;;;;;;4981659;28;20112;-80
2023/03/12 14:38:59;;;;;;;7.68;4.20;;;;;;;;;;4979527;28;20054;-84
2023/03/12 14:41:30;;;;;;;9.13;4.00;;;;;;;;;;4977824;28;20067;-83
2023/03/12 14:44:17;;;;;;;6.90;4.50;;;;;;;;;;4979481;28;20051;-81
2023/03/12 14:46:46;;;;;;;7.10;3.70;;;;;;;;;;4967959;28;20050;-81
2023/03/12 14:49:20;;;;;;;6.70;3.63;;;;;;;;;;4981764;28;20050;-81
2023/03/12 14:51:48;;;;;;;8.35;3.65;;;;;;;;;;4980525;28;20061;-81
2023/03/12 14:54:17;;;;;;;6.35;3.83;;;;;;;;;;4979033;28;20097;-81